sensor_id;sensor_type;location;lat;lon;timestamp;P1;durP1;ratioP1;P2;durP2;ratioP2
21114;SDS011;10715;48.546;9.896;2023-07-29T00:01:35;2.90;;;0.40;;
21114;SDS011;10715;48.546;9.896;2023-07-29T00:04:01;0.87;;;0.40;;
21114;SDS011;10715;48.546;9.896;2023-07-29T00:06:27;1.83;;;0.70;;
21114;SDS011;10715;48.546;9.896;2023-07-29T00:08:53;1.27;;;0.40;;
21114;SDS011;10715;48.546;9.896;2023-07-29T00:11:18;1.00;;;0.40;;
21114;SDS011;10715;48.546;9.896;2023-07-29T00:13:44;0.93;;;0.50;;
21114;SDS011;10715;48.546;9.896;2023-07-29T00:16:12;1.17;;;0.50;;
21114;SDS011;10715;48.546;9.896;2023-07-29T00:18:38;1.00;;;0.40;;
21114;SDS011;10715;48.546;9.896;2023-07-29T00:21:03;4.57;;;0.40;;
21114;SDS011;10715;48.546;9.896;2023-07-29T00:23:29;0.87;;;0.43;;
21114;SDS011;10715;48.546;9.896;2023-07-29T00:25:55;1.53;;;0.50;;
21114;SDS011;10715;48.546;9.896;2023-07-29T00:28:20;1.63;;;0.40;;
21114;SDS011;10715;48.546;9.896;2023-07-29T00:30:46;2.63;;;1.00;;
21114;SDS011;10715;48.546;9.896;2023-07-29T00:33:12;0.93;;;0.40;;
21114;SDS011;10715;48.546;9.896;2023-07-29T00:35:37;0.90;;;0.47;;
21114;SDS011;10715;48.546;9.896;2023-07-29T00:38:03;1.63;;;0.40;;
21114;SDS011;10715;48.546;9.896;2023-07-29T00:40:29;3.37;;;0.40;;
21114;SDS011;10715;48.546;9.896;2023-07-29T00:42:55;0.97;;;0.40;;
21114;SDS011;10715;48.546;9.896;2023-07-29T00:45:21;1.10;;;0.50;;
21114;SDS011;10715;48.546;9.896;2023-07-29T00:47:50;1.70;;;0.40;;
21114;SDS011;10715;48.546;9.896;2023-07-29T00:50:16;0.80;;;0.40;;
21114;SDS011;10715;48.546;9.896;2023-07-29T00:52:42;2.50;;;0.40;;
21114;SDS011;10715;48.546;9.896;2023-07-29T00:55:07;2.07;;;0.50;;
21114;SDS011;10715;48.546;9.896;2023-07-29T00:57:34;1.60;;;0.40;;
21114;SDS011;10715;48.546;9.896;2023-07-29T01:00:00;1.20;;;0.40;;
21114;SDS011;10715;48.546;9.896;2023-07-29T01:02:28;4.93;;;0.50;;
21114;SDS011;10715;48.546;9.896;2023-07-29T01:04:55;2.50;;;0.50;;
21114;SDS011;10715;48.546;9.896;2023-07-29T01:10:01;0.80;;;0.40;;
21114;SDS011;10715;48.546;9.896;2023-07-29T01:15:26;3.27;;;0.50;;
21114;SDS011;10715;48.546;9.896;2023-07-29T01:17:56;3.90;;;0.70;;
21114;SDS011;10715;48.546;9.896;2023-07-29T01:20:37;2.00;;;0.60;;
21114;SDS011;10715;48.546;9.896;2023-07-29T01:23:05;2.10;;;0.80;;
21114;SDS011;10715;48.546;9.896;2023-07-29T01:25:30;1.47;;;0.50;;
21114;SDS011;10715;48.546;9.896;2023-07-29T01:27:56;1.00;;;0.60;;
21114;SDS011;10715;48.546;9.896;2023-07-29T01:30:25;2.37;;;1.63;;
21114;SDS011;10715;48.546;9.896;2023-07-29T01:35:46;2.00;;;0.67;;
21114;SDS011;10715;48.546;9.896;2023-07-29T01:38:20;3.40;;;0.60;;
21114;SDS011;10715;48.546;9.896;2023-07-29T01:40:49;2.30;;;0.70;;
21114;SDS011;10715;48.546;9.896;2023-07-29T01:43:16;14.03;;;1.37;;
21114;SDS011;10715;48.546;9.896;2023-07-29T01:45:44;1.20;;;0.60;;
21114;SDS011;10715;48.546;9.896;2023-07-29T01:48:10;7.13;;;0.67;;
21114;SDS011;10715;48.546;9.896;2023-07-29T01:50:35;1.50;;;0.80;;
21114;SDS011;10715;48.546;9.896;2023-07-29T01:53:01;6.20;;;0.70;;
21114;SDS011;10715;48.546;9.896;2023-07-29T01:55:27;2.40;;;0.70;;
21114;SDS011;10715;48.546;9.896;2023-07-29T01:57:52;1.97;;;1.17;;
21114;SDS011;10715;48.546;9.896;2023-07-29T02:00:18;9.00;;;0.60;;
21114;SDS011;10715;48.546;9.896;2023-07-29T02:02:44;2.10;;;0.97;;
21114;SDS011;10715;48.546;9.896;2023-07-29T02:05:10;1.37;;;0.57;;
21114;SDS011;10715;48.546;9.896;2023-07-29T02:07:36;3.57;;;0.70;;
21114;SDS011;10715;48.546;9.896;2023-07-29T02:10:02;3.03;;;1.13;;
21114;SDS011;10715;48.546;9.896;2023-07-29T02:12:28;4.43;;;0.90;;
21114;SDS011;10715;48.546;9.896;2023-07-29T02:14:53;2.83;;;0.80;;
21114;SDS011;10715;48.546;9.896;2023-07-29T02:17:19;1.63;;;0.97;;
21114;SDS011;10715;48.546;9.896;2023-07-29T02:19:46;1.33;;;0.93;;
21114;SDS011;10715;48.546;9.896;2023-07-29T02:22:16;1.10;;;0.80;;
21114;SDS011;10715;48.546;9.896;2023-07-29T02:24:42;1.40;;;0.70;;
21114;SDS011;10715;48.546;9.896;2023-07-29T02:27:07;3.70;;;0.60;;
21114;SDS011;10715;48.546;9.896;2023-07-29T02:29:33;2.67;;;0.70;;
21114;SDS011;10715;48.546;9.896;2023-07-29T02:31:59;3.20;;;1.10;;
21114;SDS011;10715;48.546;9.896;2023-07-29T02:34:25;1.47;;;0.90;;
21114;SDS011;10715;48.546;9.896;2023-07-29T02:36:51;3.50;;;1.00;;
21114;SDS011;10715;48.546;9.896;2023-07-29T02:39:17;1.90;;;1.03;;
21114;SDS011;10715;48.546;9.896;2023-07-29T02:41:42;2.10;;;0.80;;
21114;SDS011;10715;48.546;9.896;2023-07-29T02:44:08;2.27;;;0.97;;
21114;SDS011;10715;48.546;9.896;2023-07-29T02:46:34;2.30;;;0.70;;
21114;SDS011;10715;48.546;9.896;2023-07-29T02:49:01;1.43;;;0.70;;
21114;SDS011;10715;48.546;9.896;2023-07-29T02:51:27;2.43;;;0.63;;
21114;SDS011;10715;48.546;9.896;2023-07-29T02:53:53;1.20;;;0.60;;
21114;SDS011;10715;48.546;9.896;2023-07-29T02:56:19;2.63;;;0.70;;
21114;SDS011;10715;48.546;9.896;2023-07-29T02:58:44;3.57;;;0.80;;
21114;SDS011;10715;48.546;9.896;2023-07-29T03:01:10;1.10;;;0.60;;
21114;SDS011;10715;48.546;9.896;2023-07-29T03:03:36;4.80;;;0.70;;
21114;SDS011;10715;48.546;9.896;2023-07-29T03:06:03;3.33;;;0.63;;
21114;SDS011;10715;48.546;9.896;2023-07-29T03:08:30;3.97;;;1.03;;
21114;SDS011;10715;48.546;9.896;2023-07-29T03:10:56;2.70;;;0.87;;
21114;SDS011;10715;48.546;9.896;2023-07-29T03:13:22;10.57;;;0.93;;
21114;SDS011;10715;48.546;9.896;2023-07-29T03:15:47;3.33;;;0.83;;
21114;SDS011;10715;48.546;9.896;2023-07-29T03:18:14;2.77;;;0.60;;
21114;SDS011;10715;48.546;9.896;2023-07-29T03:20:40;2.63;;;0.73;;
21114;SDS011;10715;48.546;9.896;2023-07-29T03:23:06;3.63;;;0.80;;
21114;SDS011;10715;48.546;9.896;2023-07-29T03:25:32;3.83;;;1.27;;
21114;SDS011;10715;48.546;9.896;2023-07-29T03:27:58;3.30;;;1.23;;
21114;SDS011;10715;48.546;9.896;2023-07-29T03:30:24;12.73;;;1.43;;
21114;SDS011;10715;48.546;9.896;2023-07-29T03:32:49;3.30;;;1.43;;
21114;SDS011;10715;48.546;9.896;2023-07-29T03:35:15;4.33;;;1.33;;
21114;SDS011;10715;48.546;9.896;2023-07-29T03:37:41;5.10;;;1.40;;
21114;SDS011;10715;48.546;9.896;2023-07-29T03:40:07;3.90;;;1.33;;
21114;SDS011;10715;48.546;9.896;2023-07-29T03:42:36;4.33;;;2.33;;
21114;SDS011;10715;48.546;9.896;2023-07-29T03:45:02;3.87;;;1.20;;
21114;SDS011;10715;48.546;9.896;2023-07-29T03:47:27;3.67;;;1.53;;
21114;SDS011;10715;48.546;9.896;2023-07-29T03:49:53;4.90;;;1.33;;
21114;SDS011;10715;48.546;9.896;2023-07-29T03:52:19;6.93;;;1.30;;
21114;SDS011;10715;48.546;9.896;2023-07-29T03:54:45;3.77;;;1.73;;
21114;SDS011;10715;48.546;9.896;2023-07-29T03:57:10;3.83;;;1.23;;
21114;SDS011;10715;48.546;9.896;2023-07-29T03:59:36;3.53;;;1.60;;
21114;SDS011;10715;48.546;9.896;2023-07-29T04:02:02;5.23;;;1.83;;
21114;SDS011;10715;48.546;9.896;2023-07-29T04:04:28;1.97;;;1.23;;
21114;SDS011;10715;48.546;9.896;2023-07-29T04:06:53;3.70;;;1.37;;
21114;SDS011;10715;48.546;9.896;2023-07-29T04:09:19;7.40;;;4.00;;
21114;SDS011;10715;48.546;9.896;2023-07-29T04:11:45;2.50;;;1.80;;
21114;SDS011;10715;48.546;9.896;2023-07-29T04:14:10;7.53;;;1.40;;
21114;SDS011;10715;48.546;9.896;2023-07-29T04:16:36;2.70;;;1.20;;
21114;SDS011;10715;48.546;9.896;2023-07-29T04:19:02;5.10;;;1.53;;
21114;SDS011;10715;48.546;9.896;2023-07-29T04:21:27;2.73;;;1.73;;
21114;SDS011;10715;48.546;9.896;2023-07-29T04:23:53;2.60;;;1.80;;
21114;SDS011;10715;48.546;9.896;2023-07-29T04:26:19;10.97;;;2.27;;
21114;SDS011;10715;48.546;9.896;2023-07-29T04:28:45;9.47;;;2.60;;
21114;SDS011;10715;48.546;9.896;2023-07-29T04:31:10;2.10;;;1.53;;
21114;SDS011;10715;48.546;9.896;2023-07-29T04:33:36;9.70;;;2.63;;
21114;SDS011;10715;48.546;9.896;2023-07-29T04:36:01;8.87;;;1.60;;
21114;SDS011;10715;48.546;9.896;2023-07-29T04:38:30;4.60;;;2.17;;
21114;SDS011;10715;48.546;9.896;2023-07-29T04:41:00;4.37;;;1.53;;
21114;SDS011;10715;48.546;9.896;2023-07-29T04:43:32;8.80;;;1.63;;
21114;SDS011;10715;48.546;9.896;2023-07-29T04:45:58;12.63;;;2.90;;
21114;SDS011;10715;48.546;9.896;2023-07-29T04:48:23;4.87;;;3.20;;
21114;SDS011;10715;48.546;9.896;2023-07-29T04:50:49;3.07;;;2.40;;
21114;SDS011;10715;48.546;9.896;2023-07-29T04:53:15;5.17;;;2.70;;
21114;SDS011;10715;48.546;9.896;2023-07-29T04:55:43;3.57;;;2.70;;
21114;SDS011;10715;48.546;9.896;2023-07-29T04:58:09;2.63;;;2.43;;
21114;SDS011;10715;48.546;9.896;2023-07-29T05:00:35;6.67;;;4.37;;
21114;SDS011;10715;48.546;9.896;2023-07-29T05:03:01;9.87;;;4.20;;
21114;SDS011;10715;48.546;9.896;2023-07-29T05:05:26;10.73;;;2.60;;
21114;SDS011;10715;48.546;9.896;2023-07-29T05:07:52;4.80;;;2.73;;
21114;SDS011;10715;48.546;9.896;2023-07-29T05:10:18;7.20;;;2.97;;
21114;SDS011;10715;48.546;9.896;2023-07-29T05:12:44;7.70;;;3.37;;
21114;SDS011;10715;48.546;9.896;2023-07-29T05:15:10;4.90;;;3.80;;
21114;SDS011;10715;48.546;9.896;2023-07-29T05:17:36;6.13;;;2.90;;
21114;SDS011;10715;48.546;9.896;2023-07-29T05:20:01;7.23;;;2.50;;
21114;SDS011;10715;48.546;9.896;2023-07-29T05:22:27;5.40;;;2.93;;
21114;SDS011;10715;48.546;9.896;2023-07-29T05:24:53;4.57;;;3.67;;
21114;SDS011;10715;48.546;9.896;2023-07-29T05:27:22;11.67;;;6.10;;
21114;SDS011;10715;48.546;9.896;2023-07-29T05:29:47;3.40;;;3.17;;
21114;SDS011;10715;48.546;9.896;2023-07-29T05:32:13;7.23;;;4.67;;
21114;SDS011;10715;48.546;9.896;2023-07-29T05:34:39;11.23;;;4.73;;
21114;SDS011;10715;48.546;9.896;2023-07-29T05:37:04;8.10;;;6.33;;
21114;SDS011;10715;48.546;9.896;2023-07-29T05:39:31;5.77;;;5.07;;
21114;SDS011;10715;48.546;9.896;2023-07-29T05:41:57;4.07;;;3.87;;
21114;SDS011;10715;48.546;9.896;2023-07-29T05:44:23;5.90;;;3.90;;
21114;SDS011;10715;48.546;9.896;2023-07-29T05:46:48;4.43;;;3.90;;
21114;SDS011;10715;48.546;9.896;2023-07-29T05:49:14;5.53;;;3.90;;
21114;SDS011;10715;48.546;9.896;2023-07-29T05:51:40;4.97;;;3.50;;
21114;SDS011;10715;48.546;9.896;2023-07-29T05:54:05;7.43;;;3.63;;
21114;SDS011;10715;48.546;9.896;2023-07-29T05:56:31;3.90;;;3.60;;
21114;SDS011;10715;48.546;9.896;2023-07-29T05:58:57;4.83;;;4.10;;
21114;SDS011;10715;48.546;9.896;2023-07-29T06:01:22;7.23;;;4.50;;
21114;SDS011;10715;48.546;9.896;2023-07-29T06:03:48;5.33;;;3.13;;
21114;SDS011;10715;48.546;9.896;2023-07-29T06:06:14;3.07;;;2.80;;
21114;SDS011;10715;48.546;9.896;2023-07-29T06:08:40;3.50;;;3.20;;
21114;SDS011;10715;48.546;9.896;2023-07-29T06:11:06;3.40;;;3.03;;
21114;SDS011;10715;48.546;9.896;2023-07-29T06:13:32;16.07;;;3.27;;
21114;SDS011;10715;48.546;9.896;2023-07-29T06:15:57;4.17;;;2.33;;
21114;SDS011;10715;48.546;9.896;2023-07-29T06:18:24;3.93;;;2.50;;
21114;SDS011;10715;48.546;9.896;2023-07-29T06:20:50;3.73;;;1.87;;
21114;SDS011;10715;48.546;9.896;2023-07-29T06:23:16;2.90;;;2.70;;
21114;SDS011;10715;48.546;9.896;2023-07-29T06:25:42;1.73;;;1.50;;
21114;SDS011;10715;48.546;9.896;2023-07-29T06:28:08;3.20;;;2.13;;
21114;SDS011;10715;48.546;9.896;2023-07-29T06:30:35;3.00;;;2.80;;
21114;SDS011;10715;48.546;9.896;2023-07-29T06:33:01;2.63;;;2.30;;
21114;SDS011;10715;48.546;9.896;2023-07-29T06:35:28;1.90;;;1.73;;
21114;SDS011;10715;48.546;9.896;2023-07-29T06:37:54;6.53;;;2.03;;
21114;SDS011;10715;48.546;9.896;2023-07-29T06:40:19;3.30;;;2.53;;
21114;SDS011;10715;48.546;9.896;2023-07-29T06:42:45;5.23;;;1.90;;
21114;SDS011;10715;48.546;9.896;2023-07-29T06:45:11;2.90;;;2.60;;
21114;SDS011;10715;48.546;9.896;2023-07-29T06:47:37;3.87;;;3.57;;
21114;SDS011;10715;48.546;9.896;2023-07-29T06:50:03;2.70;;;2.50;;
21114;SDS011;10715;48.546;9.896;2023-07-29T06:52:29;2.57;;;2.37;;
21114;SDS011;10715;48.546;9.896;2023-07-29T06:54:54;3.80;;;2.93;;
21114;SDS011;10715;48.546;9.896;2023-07-29T06:57:20;6.60;;;2.47;;
21114;SDS011;10715;48.546;9.896;2023-07-29T06:59:46;2.80;;;1.77;;
21114;SDS011;10715;48.546;9.896;2023-07-29T07:02:12;4.93;;;1.83;;
21114;SDS011;10715;48.546;9.896;2023-07-29T07:04:38;2.50;;;2.30;;
21114;SDS011;10715;48.546;9.896;2023-07-29T07:07:04;1.93;;;1.73;;
21114;SDS011;10715;48.546;9.896;2023-07-29T07:09:30;5.13;;;2.07;;
21114;SDS011;10715;48.546;9.896;2023-07-29T07:11:55;2.90;;;1.50;;
21114;SDS011;10715;48.546;9.896;2023-07-29T07:14:21;2.70;;;1.57;;
21114;SDS011;10715;48.546;9.896;2023-07-29T07:16:47;2.50;;;1.67;;
21114;SDS011;10715;48.546;9.896;2023-07-29T07:19:12;2.90;;;1.70;;
21114;SDS011;10715;48.546;9.896;2023-07-29T07:21:38;1.87;;;1.57;;
21114;SDS011;10715;48.546;9.896;2023-07-29T07:24:04;1.93;;;1.83;;
21114;SDS011;10715;48.546;9.896;2023-07-29T07:26:29;2.40;;;1.77;;
21114;SDS011;10715;48.546;9.896;2023-07-29T07:28:55;2.63;;;2.43;;
21114;SDS011;10715;48.546;9.896;2023-07-29T07:31:21;2.60;;;1.37;;
21114;SDS011;10715;48.546;9.896;2023-07-29T07:33:47;3.20;;;1.90;;
21114;SDS011;10715;48.546;9.896;2023-07-29T07:36:13;3.03;;;2.83;;
21114;SDS011;10715;48.546;9.896;2023-07-29T07:38:40;2.40;;;1.57;;
21114;SDS011;10715;48.546;9.896;2023-07-29T07:41:06;3.30;;;1.73;;
21114;SDS011;10715;48.546;9.896;2023-07-29T07:43:32;2.43;;;2.03;;
21114;SDS011;10715;48.546;9.896;2023-07-29T07:45:58;2.17;;;2.00;;
21114;SDS011;10715;48.546;9.896;2023-07-29T07:48:25;2.00;;;1.80;;
21114;SDS011;10715;48.546;9.896;2023-07-29T07:50:51;1.70;;;1.30;;
21114;SDS011;10715;48.546;9.896;2023-07-29T07:53:17;2.37;;;2.17;;
21114;SDS011;10715;48.546;9.896;2023-07-29T07:55:42;1.33;;;1.20;;
21114;SDS011;10715;48.546;9.896;2023-07-29T07:58:08;1.90;;;1.63;;
21114;SDS011;10715;48.546;9.896;2023-07-29T08:00:34;1.43;;;1.33;;
21114;SDS011;10715;48.546;9.896;2023-07-29T08:02:59;5.10;;;1.77;;
21114;SDS011;10715;48.546;9.896;2023-07-29T08:05:25;8.10;;;1.97;;
21114;SDS011;10715;48.546;9.896;2023-07-29T08:07:51;2.37;;;1.20;;
21114;SDS011;10715;48.546;9.896;2023-07-29T08:10:16;1.50;;;1.30;;
21114;SDS011;10715;48.546;9.896;2023-07-29T08:12:42;1.30;;;0.90;;
21114;SDS011;10715;48.546;9.896;2023-07-29T08:15:08;2.20;;;0.97;;
21114;SDS011;10715;48.546;9.896;2023-07-29T08:17:34;1.93;;;0.70;;
21114;SDS011;10715;48.546;9.896;2023-07-29T08:19:59;1.30;;;0.70;;
21114;SDS011;10715;48.546;9.896;2023-07-29T08:22:25;1.30;;;1.20;;
21114;SDS011;10715;48.546;9.896;2023-07-29T08:24:51;1.40;;;0.80;;
21114;SDS011;10715;48.546;9.896;2023-07-29T08:27:17;1.10;;;0.70;;
21114;SDS011;10715;48.546;9.896;2023-07-29T08:29:43;1.43;;;1.17;;
21114;SDS011;10715;48.546;9.896;2023-07-29T08:32:08;0.97;;;0.60;;
21114;SDS011;10715;48.546;9.896;2023-07-29T08:34:34;5.80;;;0.80;;
21114;SDS011;10715;48.546;9.896;2023-07-29T08:37:00;5.70;;;0.70;;
21114;SDS011;10715;48.546;9.896;2023-07-29T08:39:26;2.80;;;0.60;;
21114;SDS011;10715;48.546;9.896;2023-07-29T08:42:03;5.50;;;0.70;;
21114;SDS011;10715;48.546;9.896;2023-07-29T08:44:40;0.87;;;0.50;;
21114;SDS011;10715;48.546;9.896;2023-07-29T08:47:07;1.30;;;1.03;;
21114;SDS011;10715;48.546;9.896;2023-07-29T08:49:33;3.27;;;0.60;;
21114;SDS011;10715;48.546;9.896;2023-07-29T08:52:00;1.20;;;0.90;;
21114;SDS011;10715;48.546;9.896;2023-07-29T08:54:26;1.10;;;0.60;;
21114;SDS011;10715;48.546;9.896;2023-07-29T08:56:52;2.63;;;0.77;;
21114;SDS011;10715;48.546;9.896;2023-07-29T08:59:18;2.17;;;0.70;;
21114;SDS011;10715;48.546;9.896;2023-07-29T09:01:45;1.03;;;0.83;;
21114;SDS011;10715;48.546;9.896;2023-07-29T09:04:12;0.90;;;0.57;;
21114;SDS011;10715;48.546;9.896;2023-07-29T09:06:38;4.73;;;0.70;;
21114;SDS011;10715;48.546;9.896;2023-07-29T09:09:05;1.00;;;0.57;;
21114;SDS011;10715;48.546;9.896;2023-07-29T09:11:33;1.40;;;0.53;;
21114;SDS011;10715;48.546;9.896;2023-07-29T09:13:59;2.30;;;0.60;;
21114;SDS011;10715;48.546;9.896;2023-07-29T09:16:25;0.77;;;0.50;;
21114;SDS011;10715;48.546;9.896;2023-07-29T09:18:51;2.00;;;0.70;;
21114;SDS011;10715;48.546;9.896;2023-07-29T09:21:18;3.73;;;0.60;;
21114;SDS011;10715;48.546;9.896;2023-07-29T09:23:50;0.83;;;0.57;;
21114;SDS011;10715;48.546;9.896;2023-07-29T09:26:22;1.00;;;0.50;;
21114;SDS011;10715;48.546;9.896;2023-07-29T09:28:52;1.00;;;0.60;;
21114;SDS011;10715;48.546;9.896;2023-07-29T09:31:22;1.10;;;0.70;;
21114;SDS011;10715;48.546;9.896;2023-07-29T09:33:49;2.93;;;0.70;;
21114;SDS011;10715;48.546;9.896;2023-07-29T09:36:20;0.90;;;0.47;;
21114;SDS011;10715;48.546;9.896;2023-07-29T09:38:46;0.90;;;0.60;;
21114;SDS011;10715;48.546;9.896;2023-07-29T09:41:12;0.93;;;0.50;;
21114;SDS011;10715;48.546;9.896;2023-07-29T09:43:40;0.90;;;0.60;;
21114;SDS011;10715;48.546;9.896;2023-07-29T09:46:06;1.03;;;0.60;;
21114;SDS011;10715;48.546;9.896;2023-07-29T09:48:35;3.53;;;1.00;;
21114;SDS011;10715;48.546;9.896;2023-07-29T09:51:12;2.00;;;0.70;;
21114;SDS011;10715;48.546;9.896;2023-07-29T09:53:46;1.00;;;0.63;;
21114;SDS011;10715;48.546;9.896;2023-07-29T09:56:12;1.60;;;0.87;;
21114;SDS011;10715;48.546;9.896;2023-07-29T09:58:39;1.33;;;1.10;;
21114;SDS011;10715;48.546;9.896;2023-07-29T10:01:06;1.37;;;0.90;;
21114;SDS011;10715;48.546;9.896;2023-07-29T10:03:32;1.17;;;0.70;;
21114;SDS011;10715;48.546;9.896;2023-07-29T10:06:02;2.07;;;0.60;;
21114;SDS011;10715;48.546;9.896;2023-07-29T10:08:29;1.10;;;0.70;;
21114;SDS011;10715;48.546;9.896;2023-07-29T10:10:59;1.37;;;0.97;;
21114;SDS011;10715;48.546;9.896;2023-07-29T10:13:24;2.20;;;0.87;;
21114;SDS011;10715;48.546;9.896;2023-07-29T10:15:51;1.13;;;0.73;;
21114;SDS011;10715;48.546;9.896;2023-07-29T10:18:18;1.50;;;0.70;;
21114;SDS011;10715;48.546;9.896;2023-07-29T10:20:44;1.43;;;0.90;;
21114;SDS011;10715;48.546;9.896;2023-07-29T10:23:11;1.30;;;0.80;;
21114;SDS011;10715;48.546;9.896;2023-07-29T10:25:40;1.30;;;0.80;;
21114;SDS011;10715;48.546;9.896;2023-07-29T10:28:12;5.83;;;0.90;;
21114;SDS011;10715;48.546;9.896;2023-07-29T10:30:40;1.67;;;1.17;;
21114;SDS011;10715;48.546;9.896;2023-07-29T10:33:07;4.97;;;0.80;;
21114;SDS011;10715;48.546;9.896;2023-07-29T10:35:33;1.27;;;0.83;;
21114;SDS011;10715;48.546;9.896;2023-07-29T10:38:00;1.13;;;0.70;;
21114;SDS011;10715;48.546;9.896;2023-07-29T10:40:52;2.13;;;0.80;;
21114;SDS011;10715;48.546;9.896;2023-07-29T10:43:28;2.90;;;0.80;;
21114;SDS011;10715;48.546;9.896;2023-07-29T10:46:16;0.93;;;0.63;;
21114;SDS011;10715;48.546;9.896;2023-07-29T10:48:43;4.27;;;0.77;;
21114;SDS011;10715;48.546;9.896;2023-07-29T10:51:35;2.30;;;1.10;;
21114;SDS011;10715;48.546;9.896;2023-07-29T10:54:03;2.03;;;1.30;;
21114;SDS011;10715;48.546;9.896;2023-07-29T10:56:35;1.37;;;1.20;;
21114;SDS011;10715;48.546;9.896;2023-07-29T10:59:22;2.07;;;1.20;;
21114;SDS011;10715;48.546;9.896;2023-07-29T11:01:58;1.40;;;0.90;;
21114;SDS011;10715;48.546;9.896;2023-07-29T11:04:28;3.33;;;1.10;;
21114;SDS011;10715;48.546;9.896;2023-07-29T11:15:29;1.47;;;0.83;;
21114;SDS011;10715;48.546;9.896;2023-07-29T11:20:23;1.10;;;0.87;;
21114;SDS011;10715;48.546;9.896;2023-07-29T11:22:50;2.37;;;1.23;;
21114;SDS011;10715;48.546;9.896;2023-07-29T11:25:18;1.40;;;1.07;;
21114;SDS011;10715;48.546;9.896;2023-07-29T11:27:45;1.43;;;1.00;;
21114;SDS011;10715;48.546;9.896;2023-07-29T11:30:11;1.60;;;0.90;;
21114;SDS011;10715;48.546;9.896;2023-07-29T11:32:39;2.20;;;1.43;;
21114;SDS011;10715;48.546;9.896;2023-07-29T11:35:10;3.07;;;2.30;;
21114;SDS011;10715;48.546;9.896;2023-07-29T11:37:40;2.30;;;2.10;;
21114;SDS011;10715;48.546;9.896;2023-07-29T11:40:07;1.40;;;1.00;;
21114;SDS011;10715;48.546;9.896;2023-07-29T11:42:35;6.50;;;2.20;;
21114;SDS011;10715;48.546;9.896;2023-07-29T11:45:02;1.23;;;1.13;;
21114;SDS011;10715;48.546;9.896;2023-07-29T11:47:31;2.67;;;1.70;;
21114;SDS011;10715;48.546;9.896;2023-07-29T11:50:02;1.70;;;1.13;;
21114;SDS011;10715;48.546;9.896;2023-07-29T11:52:35;1.50;;;1.00;;
21114;SDS011;10715;48.546;9.896;2023-07-29T11:55:02;1.10;;;0.80;;
21114;SDS011;10715;48.546;9.896;2023-07-29T11:57:29;1.10;;;1.00;;
21114;SDS011;10715;48.546;9.896;2023-07-29T11:59:56;1.30;;;0.80;;
21114;SDS011;10715;48.546;9.896;2023-07-29T12:02:23;1.67;;;0.70;;
21114;SDS011;10715;48.546;9.896;2023-07-29T12:04:50;2.17;;;0.70;;
21114;SDS011;10715;48.546;9.896;2023-07-29T12:07:17;1.20;;;0.77;;
21114;SDS011;10715;48.546;9.896;2023-07-29T12:09:43;1.20;;;0.80;;
21114;SDS011;10715;48.546;9.896;2023-07-29T12:12:11;0.90;;;0.77;;
21114;SDS011;10715;48.546;9.896;2023-07-29T12:14:37;1.50;;;0.80;;
21114;SDS011;10715;48.546;9.896;2023-07-29T12:17:04;1.87;;;1.33;;
21114;SDS011;10715;48.546;9.896;2023-07-29T12:19:38;1.70;;;0.70;;
21114;SDS011;10715;48.546;9.896;2023-07-29T12:22:05;2.10;;;0.80;;
21114;SDS011;10715;48.546;9.896;2023-07-29T12:24:32;2.30;;;0.90;;
21114;SDS011;10715;48.546;9.896;2023-07-29T12:26:59;2.47;;;0.80;;
21114;SDS011;10715;48.546;9.896;2023-07-29T12:29:25;1.20;;;0.90;;
21114;SDS011;10715;48.546;9.896;2023-07-29T12:32:01;1.30;;;1.13;;
21114;SDS011;10715;48.546;9.896;2023-07-29T12:34:29;1.20;;;0.70;;
21114;SDS011;10715;48.546;9.896;2023-07-29T12:36:56;1.10;;;0.50;;
21114;SDS011;10715;48.546;9.896;2023-07-29T12:39:32;1.00;;;0.60;;
21114;SDS011;10715;48.546;9.896;2023-07-29T12:42:00;1.33;;;0.70;;
21114;SDS011;10715;48.546;9.896;2023-07-29T12:44:29;1.20;;;0.80;;
21114;SDS011;10715;48.546;9.896;2023-07-29T12:46:56;2.33;;;1.00;;
21114;SDS011;10715;48.546;9.896;2023-07-29T12:49:22;1.03;;;0.80;;
21114;SDS011;10715;48.546;9.896;2023-07-29T12:51:48;1.80;;;1.17;;
21114;SDS011;10715;48.546;9.896;2023-07-29T12:54:13;1.17;;;0.50;;
21114;SDS011;10715;48.546;9.896;2023-07-29T12:56:39;1.00;;;0.70;;
21114;SDS011;10715;48.546;9.896;2023-07-29T12:59:05;1.30;;;0.80;;
21114;SDS011;10715;48.546;9.896;2023-07-29T13:01:31;1.10;;;0.80;;
21114;SDS011;10715;48.546;9.896;2023-07-29T13:03:57;1.80;;;0.90;;
21114;SDS011;10715;48.546;9.896;2023-07-29T13:06:23;1.73;;;0.63;;
21114;SDS011;10715;48.546;9.896;2023-07-29T13:08:48;1.50;;;0.70;;
21114;SDS011;10715;48.546;9.896;2023-07-29T13:11:15;2.50;;;0.50;;
21114;SDS011;10715;48.546;9.896;2023-07-29T13:13:41;1.00;;;0.60;;
21114;SDS011;10715;48.546;9.896;2023-07-29T13:16:07;1.03;;;0.60;;
21114;SDS011;10715;48.546;9.896;2023-07-29T13:18:33;1.20;;;0.70;;
21114;SDS011;10715;48.546;9.896;2023-07-29T13:20:58;1.37;;;0.60;;
21114;SDS011;10715;48.546;9.896;2023-07-29T13:23:25;1.60;;;0.90;;
21114;SDS011;10715;48.546;9.896;2023-07-29T13:25:52;1.07;;;0.63;;
21114;SDS011;10715;48.546;9.896;2023-07-29T13:28:17;2.27;;;0.70;;
21114;SDS011;10715;48.546;9.896;2023-07-29T13:30:44;0.90;;;0.50;;
21114;SDS011;10715;48.546;9.896;2023-07-29T13:33:10;0.90;;;0.50;;
21114;SDS011;10715;48.546;9.896;2023-07-29T13:35:35;2.20;;;0.70;;
21114;SDS011;10715;48.546;9.896;2023-07-29T13:38:01;2.30;;;0.60;;
21114;SDS011;10715;48.546;9.896;2023-07-29T13:40:27;1.07;;;0.70;;
21114;SDS011;10715;48.546;9.896;2023-07-29T13:42:53;1.00;;;0.60;;
21114;SDS011;10715;48.546;9.896;2023-07-29T13:45:20;2.03;;;0.60;;
21114;SDS011;10715;48.546;9.896;2023-07-29T13:47:46;1.27;;;0.73;;
21114;SDS011;10715;48.546;9.896;2023-07-29T13:50:11;1.30;;;0.87;;
21114;SDS011;10715;48.546;9.896;2023-07-29T13:52:37;2.57;;;1.17;;
21114;SDS011;10715;48.546;9.896;2023-07-29T13:55:04;1.37;;;0.93;;
21114;SDS011;10715;48.546;9.896;2023-07-29T13:57:31;1.40;;;1.00;;
21114;SDS011;10715;48.546;9.896;2023-07-29T13:59:56;1.73;;;1.07;;
21114;SDS011;10715;48.546;9.896;2023-07-29T14:02:22;4.00;;;0.90;;
21114;SDS011;10715;48.546;9.896;2023-07-29T14:04:48;1.90;;;1.33;;
21114;SDS011;10715;48.546;9.896;2023-07-29T14:07:14;1.43;;;1.27;;
21114;SDS011;10715;48.546;9.896;2023-07-29T14:09:40;2.57;;;1.07;;
21114;SDS011;10715;48.546;9.896;2023-07-29T14:12:07;1.90;;;0.80;;
21114;SDS011;10715;48.546;9.896;2023-07-29T14:14:37;1.87;;;1.23;;
21114;SDS011;10715;48.546;9.896;2023-07-29T14:17:03;1.20;;;0.90;;
21114;SDS011;10715;48.546;9.896;2023-07-29T14:19:29;4.10;;;0.70;;
21114;SDS011;10715;48.546;9.896;2023-07-29T14:21:55;1.53;;;1.07;;
21114;SDS011;10715;48.546;9.896;2023-07-29T14:24:21;1.23;;;0.70;;
21114;SDS011;10715;48.546;9.896;2023-07-29T14:26:47;1.20;;;0.80;;
21114;SDS011;10715;48.546;9.896;2023-07-29T14:29:13;1.07;;;0.60;;
21114;SDS011;10715;48.546;9.896;2023-07-29T14:31:39;1.10;;;0.73;;
21114;SDS011;10715;48.546;9.896;2023-07-29T14:34:05;1.30;;;0.70;;
21114;SDS011;10715;48.546;9.896;2023-07-29T14:36:30;1.20;;;0.67;;
21114;SDS011;10715;48.546;9.896;2023-07-29T14:38:56;1.80;;;1.03;;
21114;SDS011;10715;48.546;9.896;2023-07-29T14:41:22;1.87;;;0.80;;
21114;SDS011;10715;48.546;9.896;2023-07-29T14:43:47;1.03;;;0.60;;
21114;SDS011;10715;48.546;9.896;2023-07-29T14:46:13;1.07;;;0.67;;
21114;SDS011;10715;48.546;9.896;2023-07-29T14:48:39;1.10;;;0.63;;
21114;SDS011;10715;48.546;9.896;2023-07-29T14:51:05;1.23;;;0.70;;
21114;SDS011;10715;48.546;9.896;2023-07-29T14:53:30;1.00;;;0.70;;
21114;SDS011;10715;48.546;9.896;2023-07-29T14:55:56;1.40;;;0.97;;
21114;SDS011;10715;48.546;9.896;2023-07-29T14:58:22;1.33;;;0.80;;
21114;SDS011;10715;48.546;9.896;2023-07-29T15:00:50;2.63;;;0.60;;
21114;SDS011;10715;48.546;9.896;2023-07-29T15:03:16;1.13;;;0.73;;
21114;SDS011;10715;48.546;9.896;2023-07-29T15:05:42;1.60;;;0.77;;